sensor_id;sensor_type;location;lat;lon;timestamp;pressure;altitude;pressure_sealevel;temperature;humidity
68380;BME280;57711;53.196;19.638;2023-05-25T00:01:36;100470.39;;;16.86;50.54
68380;BME280;57711;53.196;19.638;2023-05-25T00:04:03;100465.40;;;16.86;50.57
68380;BME280;57711;53.196;19.638;2023-05-25T00:06:31;100470.91;;;16.86;50.54
68380;BME280;57711;53.196;19.638;2023-05-25T00:08:58;100468.44;;;16.85;50.52
68380;BME280;57711;53.196;19.638;2023-05-25T00:11:25;100466.91;;;16.86;50.55
68380;BME280;57711;53.196;19.638;2023-05-25T00:13:53;100465.35;;;16.88;50.61
68380;BME280;57711;53.196;19.638;2023-05-25T00:16:20;100475.29;;;16.89;50.69
68380;BME280;57711;53.196;19.638;2023-05-25T00:18:47;100478.94;;;16.87;50.80
68380;BME280;57711;53.196;19.638;2023-05-25T00:21:14;100483.81;;;16.85;50.73
68380;BME280;57711;53.196;19.638;2023-05-25T00:23:42;100481.19;;;16.82;50.76
68380;BME280;57711;53.196;19.638;2023-05-25T00:26:09;100479.72;;;16.78;50.74
68380;BME280;57711;53.196;19.638;2023-05-25T00:28:36;100472.04;;;16.74;50.78
68380;BME280;57711;53.196;19.638;2023-05-25T00:31:03;100467.13;;;16.71;50.87
68380;BME280;57711;53.196;19.638;2023-05-25T00:33:31;100465.83;;;16.69;51.03
68380;BME280;57711;53.196;19.638;2023-05-25T00:35:58;100465.14;;;16.69;50.85
68380;BME280;57711;53.196;19.638;2023-05-25T00:38:26;100462.73;;;16.67;50.98
68380;BME280;57711;53.196;19.638;2023-05-25T00:40:54;100466.84;;;16.65;51.09
68380;BME280;57711;53.196;19.638;2023-05-25T00:43:25;100467.23;;;16.63;50.95
68380;BME280;57711;53.196;19.638;2023-05-25T00:45:52;100466.54;;;16.61;51.16
68380;BME280;57711;53.196;19.638;2023-05-25T00:48:21;100469.66;;;16.56;51.24
68380;BME280;57711;53.196;19.638;2023-05-25T00:50:51;100474.82;;;16.52;51.23
68380;BME280;57711;53.196;19.638;2023-05-25T00:53:20;100469.32;;;16.49;51.14
68380;BME280;57711;53.196;19.638;2023-05-25T00:58:23;100473.80;;;16.50;51.34
68380;BME280;57711;53.196;19.638;2023-05-25T01:00:53;100476.75;;;16.51;51.18
68380;BME280;57711;53.196;19.638;2023-05-25T01:03:25;100479.76;;;16.52;51.21
68380;BME280;57711;53.196;19.638;2023-05-25T01:05:56;100479.63;;;16.52;51.26
68380;BME280;57711;53.196;19.638;2023-05-25T01:08:25;100474.65;;;16.50;51.46
68380;BME280;57711;53.196;19.638;2023-05-25T01:10:56;100483.13;;;16.53;51.56
68380;BME280;57711;53.196;19.638;2023-05-25T01:13:26;100485.27;;;16.53;51.37
68380;BME280;57711;53.196;19.638;2023-05-25T01:15:56;100487.70;;;16.51;51.48
68380;BME280;57711;53.196;19.638;2023-05-25T01:18:24;100488.65;;;16.48;51.43
68380;BME280;57711;53.196;19.638;2023-05-25T01:21:18;100487.17;;;16.43;51.40
68380;BME280;57711;53.196;19.638;2023-05-25T01:24:09;100490.66;;;16.37;51.51
68380;BME280;57711;53.196;19.638;2023-05-25T01:26:45;100490.95;;;16.30;51.51
68380;BME280;57711;53.196;19.638;2023-05-25T01:29:13;100492.08;;;16.25;51.36
68380;BME280;57711;53.196;19.638;2023-05-25T01:31:42;100489.84;;;16.18;51.57
68380;BME280;57711;53.196;19.638;2023-05-25T01:34:12;100489.90;;;16.13;51.72
68380;BME280;57711;53.196;19.638;2023-05-25T01:36:40;100489.64;;;16.08;51.69
68380;BME280;57711;53.196;19.638;2023-05-25T01:39:08;100487.99;;;16.05;51.55
68380;BME280;57711;53.196;19.638;2023-05-25T01:41:37;100494.56;;;16.05;51.84
68380;BME280;57711;53.196;19.638;2023-05-25T01:44:06;100499.89;;;16.05;51.72
68380;BME280;57711;53.196;19.638;2023-05-25T01:46:38;100507.03;;;16.04;51.89
68380;BME280;57711;53.196;19.638;2023-05-25T01:49:19;100509.92;;;16.06;52.00
68380;BME280;57711;53.196;19.638;2023-05-25T01:54:41;100511.74;;;16.07;51.97
68380;BME280;57711;53.196;19.638;2023-05-25T01:57:13;100514.33;;;16.04;52.14
68380;BME280;57711;53.196;19.638;2023-05-25T01:59:42;100510.25;;;16.00;52.05
68380;BME280;57711;53.196;19.638;2023-05-25T02:02:11;100502.92;;;15.99;52.19
68380;BME280;57711;53.196;19.638;2023-05-25T02:04:41;100510.05;;;15.99;52.19
68380;BME280;57711;53.196;19.638;2023-05-25T02:07:09;100511.13;;;15.97;52.15
68380;BME280;57711;53.196;19.638;2023-05-25T02:09:37;100516.23;;;15.99;52.41
68380;BME280;57711;53.196;19.638;2023-05-25T02:12:04;100516.62;;;16.00;52.21
68380;BME280;57711;53.196;19.638;2023-05-25T02:14:32;100511.17;;;16.02;52.34
68380;BME280;57711;53.196;19.638;2023-05-25T02:16:59;100508.57;;;16.06;52.25
68380;BME280;57711;53.196;19.638;2023-05-25T02:19:28;100510.44;;;16.07;52.35
68380;BME280;57711;53.196;19.638;2023-05-25T02:21:56;100512.86;;;16.06;52.49
68380;BME280;57711;53.196;19.638;2023-05-25T02:24:24;100517.44;;;16.06;52.37
68380;BME280;57711;53.196;19.638;2023-05-25T02:26:52;100519.05;;;16.04;52.44
68380;BME280;57711;53.196;19.638;2023-05-25T02:29:19;100518.23;;;16.05;52.52
68380;BME280;57711;53.196;19.638;2023-05-25T02:31:46;100520.91;;;16.06;52.41
68380;BME280;57711;53.196;19.638;2023-05-25T02:34:14;100526.77;;;16.04;52.56
68380;BME280;57711;53.196;19.638;2023-05-25T02:36:43;100529.00;;;16.04;52.67
68380;BME280;57711;53.196;19.638;2023-05-25T02:39:10;100526.48;;;16.02;52.77
68380;BME280;57711;53.196;19.638;2023-05-25T02:41:38;100524.23;;;15.99;52.58
68380;BME280;57711;53.196;19.638;2023-05-25T02:44:06;100522.77;;;15.97;52.58
68380;BME280;57711;53.196;19.638;2023-05-25T02:46:33;100523.64;;;15.96;52.69
68380;BME280;57711;53.196;19.638;2023-05-25T02:49:00;100525.14;;;15.96;52.57
68380;BME280;57711;53.196;19.638;2023-05-25T02:51:28;100526.92;;;15.94;52.79
68380;BME280;57711;53.196;19.638;2023-05-25T02:53:57;100526.50;;;15.95;52.86
68380;BME280;57711;53.196;19.638;2023-05-25T02:56:24;100525.48;;;15.96;52.84
68380;BME280;57711;53.196;19.638;2023-05-25T02:58:55;100525.76;;;15.97;52.74
68380;BME280;57711;53.196;19.638;2023-05-25T03:01:28;100530.24;;;15.97;52.80
68380;BME280;57711;53.196;19.638;2023-05-25T03:03:57;100529.20;;;15.99;53.01
68380;BME280;57711;53.196;19.638;2023-05-25T03:06:25;100530.56;;;16.00;53.04
68380;BME280;57711;53.196;19.638;2023-05-25T03:08:57;100536.67;;;15.98;52.94
68380;BME280;57711;53.196;19.638;2023-05-25T03:11:24;100534.17;;;15.96;52.96
68380;BME280;57711;53.196;19.638;2023-05-25T03:13:54;100533.96;;;15.93;52.97
68380;BME280;57711;53.196;19.638;2023-05-25T03:16:22;100532.95;;;15.89;53.10
68380;BME280;57711;53.196;19.638;2023-05-25T03:18:49;100537.04;;;15.86;53.09
68380;BME280;57711;53.196;19.638;2023-05-25T03:21:17;100543.12;;;15.84;53.07
68380;BME280;57711;53.196;19.638;2023-05-25T03:23:44;100541.27;;;15.83;53.15
68380;BME280;57711;53.196;19.638;2023-05-25T03:26:11;100542.20;;;15.83;52.98
68380;BME280;57711;53.196;19.638;2023-05-25T03:28:39;100551.76;;;15.85;53.20
68380;BME280;57711;53.196;19.638;2023-05-25T03:31:06;100556.02;;;15.86;53.23
68380;BME280;57711;53.196;19.638;2023-05-25T03:33:34;100559.84;;;15.86;53.01
68380;BME280;57711;53.196;19.638;2023-05-25T03:36:05;100562.38;;;15.86;53.36
68380;BME280;57711;53.196;19.638;2023-05-25T03:38:36;100563.23;;;15.85;53.15
68380;BME280;57711;53.196;19.638;2023-05-25T03:41:03;100561.30;;;15.84;53.31
68380;BME280;57711;53.196;19.638;2023-05-25T03:43:32;100567.41;;;15.82;53.15
68380;BME280;57711;53.196;19.638;2023-05-25T03:45:59;100566.33;;;15.80;53.41
68380;BME280;57711;53.196;19.638;2023-05-25T03:48:26;100564.98;;;15.79;53.46
68380;BME280;57711;53.196;19.638;2023-05-25T03:50:55;100565.93;;;15.77;53.36
68380;BME280;57711;53.196;19.638;2023-05-25T03:53:22;100565.45;;;15.78;53.56
68380;BME280;57711;53.196;19.638;2023-05-25T03:55:49;100561.86;;;15.79;53.44
68380;BME280;57711;53.196;19.638;2023-05-25T03:58:18;100565.60;;;15.80;53.34
68380;BME280;57711;53.196;19.638;2023-05-25T04:00:45;100568.24;;;15.83;53.43
68380;BME280;57711;53.196;19.638;2023-05-25T04:03:15;100573.91;;;15.84;53.44
68380;BME280;57711;53.196;19.638;2023-05-25T04:05:42;100576.98;;;15.88;53.55
68380;BME280;57711;53.196;19.638;2023-05-25T04:08:13;100579.50;;;15.91;53.80
68380;BME280;57711;53.196;19.638;2023-05-25T04:10:44;100586.92;;;15.93;53.53
68380;BME280;57711;53.196;19.638;2023-05-25T04:13:12;100593.95;;;15.94;53.73
68380;BME280;57711;53.196;19.638;2023-05-25T04:15:40;100600.70;;;15.95;53.57
68380;BME280;57711;53.196;19.638;2023-05-25T04:18:11;100606.39;;;15.96;53.70
68380;BME280;57711;53.196;19.638;2023-05-25T04:20:39;100605.77;;;15.96;53.48
68380;BME280;57711;53.196;19.638;2023-05-25T04:23:09;100603.83;;;15.96;53.76
68380;BME280;57711;53.196;19.638;2023-05-25T04:25:39;100598.70;;;15.97;53.57
68380;BME280;57711;53.196;19.638;2023-05-25T04:28:08;100604.35;;;15.98;53.71
68380;BME280;57711;53.196;19.638;2023-05-25T04:30:51;100601.70;;;15.98;53.80
68380;BME280;57711;53.196;19.638;2023-05-25T04:33:41;100599.16;;;15.99;53.87
68380;BME280;57711;53.196;19.638;2023-05-25T04:36:15;100596.39;;;15.99;53.67
68380;BME280;57711;53.196;19.638;2023-05-25T04:38:42;100597.81;;;16.01;53.72
68380;BME280;57711;53.196;19.638;2023-05-25T04:41:14;100596.78;;;16.03;53.71
68380;BME280;57711;53.196;19.638;2023-05-25T04:43:45;100595.31;;;16.04;53.70
68380;BME280;57711;53.196;19.638;2023-05-25T04:46:33;100595.45;;;16.05;53.89
68380;BME280;57711;53.196;19.638;2023-05-25T04:49:04;100597.55;;;16.08;53.91
68380;BME280;57711;53.196;19.638;2023-05-25T04:51:35;100599.48;;;16.12;53.96
68380;BME280;57711;53.196;19.638;2023-05-25T04:54:03;100601.06;;;16.14;53.77
68380;BME280;57711;53.196;19.638;2023-05-25T04:56:31;100596.15;;;16.15;53.85
68380;BME280;57711;53.196;19.638;2023-05-25T04:58:58;100596.12;;;16.17;53.76
68380;BME280;57711;53.196;19.638;2023-05-25T05:01:26;100599.05;;;16.17;53.97
68380;BME280;57711;53.196;19.638;2023-05-25T05:03:58;100595.61;;;16.19;54.04
68380;BME280;57711;53.196;19.638;2023-05-25T05:06:25;100596.23;;;16.19;54.00
68380;BME280;57711;53.196;19.638;2023-05-25T05:08:53;100597.73;;;16.19;54.10
68380;BME280;57711;53.196;19.638;2023-05-25T05:11:21;100599.03;;;16.21;54.11
68380;BME280;57711;53.196;19.638;2023-05-25T05:13:50;100598.04;;;16.23;54.10
68380;BME280;57711;53.196;19.638;2023-05-25T05:16:17;100597.17;;;16.24;54.00
68380;BME280;57711;53.196;19.638;2023-05-25T05:18:44;100595.19;;;16.26;54.01
68380;BME280;57711;53.196;19.638;2023-05-25T05:21:12;100592.63;;;16.28;53.97
68380;BME280;57711;53.196;19.638;2023-05-25T05:23:42;100593.52;;;16.25;54.11
68380;BME280;57711;53.196;19.638;2023-05-25T05:26:09;100589.21;;;16.22;54.15
68380;BME280;57711;53.196;19.638;2023-05-25T05:28:37;100586.78;;;16.21;53.95
68380;BME280;57711;53.196;19.638;2023-05-25T05:31:04;100583.54;;;16.20;54.03
68380;BME280;57711;53.196;19.638;2023-05-25T05:33:33;100582.20;;;16.21;54.14
68380;BME280;57711;53.196;19.638;2023-05-25T05:36:01;100584.16;;;16.20;54.09
68380;BME280;57711;53.196;19.638;2023-05-25T05:38:30;100582.23;;;16.19;54.23
68380;BME280;57711;53.196;19.638;2023-05-25T05:40:58;100583.40;;;16.18;54.10
68380;BME280;57711;53.196;19.638;2023-05-25T05:43:26;100583.67;;;16.18;54.23
68380;BME280;57711;53.196;19.638;2023-05-25T05:45:54;100583.33;;;16.19;54.12
68380;BME280;57711;53.196;19.638;2023-05-25T05:48:21;100586.65;;;16.22;54.13
68380;BME280;57711;53.196;19.638;2023-05-25T05:50:48;100588.85;;;16.22;54.16
68380;BME280;57711;53.196;19.638;2023-05-25T05:53:17;100584.63;;;16.28;54.21
68380;BME280;57711;53.196;19.638;2023-05-25T05:55:44;100585.84;;;16.37;54.33
68380;BME280;57711;53.196;19.638;2023-05-25T05:58:14;100585.95;;;16.51;54.32
68380;BME280;57711;53.196;19.638;2023-05-25T06:00:41;100587.55;;;16.64;54.35
68380;BME280;57711;53.196;19.638;2023-05-25T06:03:08;100587.05;;;16.79;54.39
68380;BME280;57711;53.196;19.638;2023-05-25T06:05:35;100583.20;;;16.93;54.37
68380;BME280;57711;53.196;19.638;2023-05-25T06:08:03;100585.66;;;17.05;54.25
68380;BME280;57711;53.196;19.638;2023-05-25T06:10:33;100587.71;;;17.16;54.30
68380;BME280;57711;53.196;19.638;2023-05-25T06:13:00;100587.30;;;17.28;54.20
68380;BME280;57711;53.196;19.638;2023-05-25T06:15:27;100587.14;;;17.38;54.26
68380;BME280;57711;53.196;19.638;2023-05-25T06:17:56;100592.11;;;17.47;54.26
68380;BME280;57711;53.196;19.638;2023-05-25T06:20:23;100591.00;;;17.60;54.36
68380;BME280;57711;53.196;19.638;2023-05-25T06:22:51;100592.31;;;17.74;54.28
68380;BME280;57711;53.196;19.638;2023-05-25T06:25:18;100593.70;;;17.89;54.31
68380;BME280;57711;53.196;19.638;2023-05-25T06:27:46;100594.95;;;18.04;54.18
68380;BME280;57711;53.196;19.638;2023-05-25T06:30:13;100592.34;;;18.12;54.18
68380;BME280;57711;53.196;19.638;2023-05-25T06:32:41;100593.14;;;18.18;54.05
68380;BME280;57711;53.196;19.638;2023-05-25T06:35:09;100592.36;;;18.25;54.23
68380;BME280;57711;53.196;19.638;2023-05-25T06:37:43;100592.93;;;18.39;54.38
68380;BME280;57711;53.196;19.638;2023-05-25T06:40:10;100593.39;;;18.51;54.20
68380;BME280;57711;53.196;19.638;2023-05-25T06:42:38;100592.18;;;18.61;54.07
68380;BME280;57711;53.196;19.638;2023-05-25T06:45:21;100592.13;;;18.69;53.98
68380;BME280;57711;53.196;19.638;2023-05-25T06:47:49;100595.08;;;18.77;53.98
68380;BME280;57711;53.196;19.638;2023-05-25T06:50:16;100592.91;;;18.91;54.25
68380;BME280;57711;53.196;19.638;2023-05-25T06:52:44;100592.80;;;19.07;54.09
68380;BME280;57711;53.196;19.638;2023-05-25T06:55:12;100585.20;;;19.19;53.96
68380;BME280;57711;53.196;19.638;2023-05-25T06:57:39;100589.38;;;19.26;53.91
68380;BME280;57711;53.196;19.638;2023-05-25T07:00:07;100591.46;;;19.33;53.73
68380;BME280;57711;53.196;19.638;2023-05-25T07:02:38;100593.73;;;19.36;53.81
68380;BME280;57711;53.196;19.638;2023-05-25T07:05:06;100598.00;;;19.44;53.89
68380;BME280;57711;53.196;19.638;2023-05-25T07:07:33;100603.05;;;19.58;53.85
68380;BME280;57711;53.196;19.638;2023-05-25T07:10:03;100605.19;;;19.68;53.67
68380;BME280;57711;53.196;19.638;2023-05-25T07:12:30;100614.27;;;19.74;53.66
68380;BME280;57711;53.196;19.638;2023-05-25T07:14:57;100612.42;;;19.78;53.63
68380;BME280;57711;53.196;19.638;2023-05-25T07:17:24;100618.95;;;19.83;53.71
68380;BME280;57711;53.196;19.638;2023-05-25T07:19:52;100618.73;;;19.92;53.70
68380;BME280;57711;53.196;19.638;2023-05-25T07:22:20;100617.42;;;20.00;53.57
68380;BME280;57711;53.196;19.638;2023-05-25T07:24:49;100621.99;;;20.12;53.77
68380;BME280;57711;53.196;19.638;2023-05-25T07:27:16;100624.23;;;20.28;53.70
68380;BME280;57711;53.196;19.638;2023-05-25T07:29:45;100625.31;;;20.43;53.68
68380;BME280;57711;53.196;19.638;2023-05-25T07:32:12;100623.65;;;20.59;53.49
68380;BME280;57711;53.196;19.638;2023-05-25T07:34:39;100617.42;;;20.72;53.39
68380;BME280;57711;53.196;19.638;2023-05-25T07:37:07;100613.65;;;20.81;53.30
68380;BME280;57711;53.196;19.638;2023-05-25T07:39:34;100612.27;;;20.91;53.47
68380;BME280;57711;53.196;19.638;2023-05-25T07:42:01;100616.44;;;21.04;53.31
68380;BME280;57711;53.196;19.638;2023-05-25T07:44:28;100615.20;;;21.17;53.22
68380;BME280;57711;53.196;19.638;2023-05-25T07:46:56;100614.45;;;21.23;53.06
68380;BME280;57711;53.196;19.638;2023-05-25T07:49:23;100609.02;;;21.33;53.14
68380;BME280;57711;53.196;19.638;2023-05-25T07:51:50;100603.27;;;21.40;52.87
68380;BME280;57711;53.196;19.638;2023-05-25T07:54:17;100602.04;;;21.45;52.90
68380;BME280;57711;53.196;19.638;2023-05-25T07:56:45;100601.08;;;21.56;52.94
68380;BME280;57711;53.196;19.638;2023-05-25T07:59:12;100596.36;;;21.68;53.04
68380;BME280;57711;53.196;19.638;2023-05-25T08:01:40;100594.70;;;21.81;52.80
68380;BME280;57711;53.196;19.638;2023-05-25T08:04:07;100591.75;;;21.92;52.68
68380;BME280;57711;53.196;19.638;2023-05-25T08:06:35;100588.37;;;22.02;52.69
68380;BME280;57711;53.196;19.638;2023-05-25T08:09:03;100592.33;;;22.13;52.74
68380;BME280;57711;53.196;19.638;2023-05-25T08:11:30;100596.27;;;22.26;52.56
68380;BME280;57711;53.196;19.638;2023-05-25T08:13:58;100597.64;;;22.31;52.28
68380;BME280;57711;53.196;19.638;2023-05-25T08:16:26;100604.42;;;22.38;52.49
68380;BME280;57711;53.196;19.638;2023-05-25T08:18:54;100606.70;;;22.43;52.18
68380;BME280;57711;53.196;19.638;2023-05-25T08:21:21;100609.02;;;22.39;52.07
68380;BME280;57711;53.196;19.638;2023-05-25T08:23:48;100607.23;;;22.32;52.05
68380;BME280;57711;53.196;19.638;2023-05-25T08:26:16;100607.63;;;22.26;52.02
68380;BME280;57711;53.196;19.638;2023-05-25T08:29:03;100613.71;;;22.20;52.01
68380;BME280;57711;53.196;19.638;2023-05-25T08:31:31;100614.58;;;22.18;52.05
68380;BME280;57711;53.196;19.638;2023-05-25T08:34:00;100617.62;;;22.13;51.92
68380;BME280;57711;53.196;19.638;2023-05-25T08:36:27;100622.86;;;22.07;52.00
68380;BME280;57711;53.196;19.638;2023-05-25T08:38:55;100625.49;;;22.06;51.97
68380;BME280;57711;53.196;19.638;2023-05-25T08:41:22;100626.83;;;22.05;51.82
68380;BME280;57711;53.196;19.638;2023-05-25T08:43:50;100627.08;;;22.08;51.98
68380;BME280;57711;53.196;19.638;2023-05-25T08:46:29;100627.77;;;22.17;51.93
68380;BME280;57711;53.196;19.638;2023-05-25T08:49:10;100630.96;;;22.12;51.86
68380;BME280;57711;53.196;19.638;2023-05-25T08:51:46;100635.45;;;22.03;51.63
68380;BME280;57711;53.196;19.638;2023-05-25T08:54:23;100634.52;;;21.98;51.75
68380;BME280;57711;53.196;19.638;2023-05-25T08:56:54;100628.06;;;22.04;51.92
68380;BME280;57711;53.196;19.638;2023-05-25T09:05:38;100630.59;;;22.66;51.70
68380;BME280;57711;53.196;19.638;2023-05-25T09:08:06;100631.18;;;22.78;51.67
68380;BME280;57711;53.196;19.638;2023-05-25T09:10:35;100627.82;;;22.92;51.74
68380;BME280;57711;53.196;19.638;2023-05-25T09:13:03;100628.60;;;23.02;51.56
68380;BME280;57711;53.196;19.638;2023-05-25T09:15:48;100628.86;;;23.15;51.41
68380;BME280;57711;53.196;19.638;2023-05-25T09:18:15;100624.31;;;23.20;51.25
68380;BME280;57711;53.196;19.638;2023-05-25T09:20:42;100626.66;;;23.27;51.44
68380;BME280;57711;53.196;19.638;2023-05-25T09:23:13;100628.58;;;23.44;51.30
68380;BME280;57711;53.196;19.638;2023-05-25T09:25:40;100627.21;;;23.57;51.19
68380;BME280;57711;53.196;19.638;2023-05-25T09:28:08;100627.59;;;23.71;51.16
68380;BME280;57711;53.196;19.638;2023-05-25T09:30:53;100636.50;;;23.86;51.17
68380;BME280;57711;53.196;19.638;2023-05-25T09:33:20;100636.64;;;24.01;51.16
68380;BME280;57711;53.196;19.638;2023-05-25T09:35:48;100635.80;;;24.14;51.04
68380;BME280;57711;53.196;19.638;2023-05-25T09:38:15;100636.06;;;24.24;50.84
68380;BME280;57711;53.196;19.638;2023-05-25T09:40:43;100635.75;;;24.30;50.72
68380;BME280;57711;53.196;19.638;2023-05-25T09:43:12;100639.19;;;24.36;50.82
68380;BME280;57711;53.196;19.638;2023-05-25T09:45:54;100638.16;;;24.48;50.80
68380;BME280;57711;53.196;19.638;2023-05-25T09:48:22;100642.17;;;24.62;50.66
68380;BME280;57711;53.196;19.638;2023-05-25T09:50:50;100643.27;;;24.74;50.58
68380;BME280;57711;53.196;19.638;2023-05-25T09:53:17;100642.34;;;24.86;50.49
68380;BME280;57711;53.196;19.638;2023-05-25T09:55:47;100640.08;;;24.97;50.40
68380;BME280;57711;53.196;19.638;2023-05-25T09:58:22;100642.89;;;25.03;50.35
68380;BME280;57711;53.196;19.638;2023-05-25T10:00:54;100639.05;;;25.09;50.26
68380;BME280;57711;53.196;19.638;2023-05-25T10:03:21;100639.91;;;25.13;50.18
68380;BME280;57711;53.196;19.638;2023-05-25T10:05:49;100640.24;;;25.16;50.11
68380;BME280;57711;53.196;19.638;2023-05-25T10:08:18;100641.55;;;25.18;50.06
68380;BME280;57711;53.196;19.638;2023-05-25T10:10:47;100645.76;;;25.15;49.80
68380;BME280;57711;53.196;19.638;2023-05-25T10:13:20;100649.58;;;25.04;49.77
68380;BME280;57711;53.196;19.638;2023-05-25T10:15:51;100649.68;;;24.97;49.76
68380;BME280;57711;53.196;19.638;2023-05-25T10:18:23;100652.45;;;24.86;49.61
68380;BME280;57711;53.196;19.638;2023-05-25T10:20:56;100649.16;;;24.75;49.51
68380;BME280;57711;53.196;19.638;2023-05-25T10:23:39;100647.08;;;24.73;49.53
68380;BME280;57711;53.196;19.638;2023-05-25T10:26:13;100647.22;;;24.77;49.75
68380;BME280;57711;53.196;19.638;2023-05-25T10:28:42;100652.05;;;24.84;49.54
68380;BME280;57711;53.196;19.638;2023-05-25T10:31:11;100646.80;;;24.92;49.52
68380;BME280;57711;53.196;19.638;2023-05-25T10:33:39;100651.70;;;25.02;49.39
68380;BME280;57711;53.196;19.638;2023-05-25T10:36:07;100651.80;;;25.04;49.26
68380;BME280;57711;53.196;19.638;2023-05-25T10:38:40;100649.79;;;25.05;49.20
68380;BME280;57711;53.196;19.638;2023-05-25T10:41:10;100645.27;;;24.99;49.17
68380;BME280;57711;53.196;19.638;2023-05-25T10:43:38;100645.36;;;25.02;49.13
68380;BME280;57711;53.196;19.638;2023-05-25T10:46:07;100647.94;;;25.01;48.89
68380;BME280;57711;53.196;19.638;2023-05-25T10:48:38;100644.55;;;24.97;48.86
68380;BME280;57711;53.196;19.638;2023-05-25T10:51:06;100641.13;;;24.96;48.83
68380;BME280;57711;53.196;19.638;2023-05-25T10:53:37;100638.66;;;25.03;48.99
68380;BME280;57711;53.196;19.638;2023-05-25T10:56:06;100637.34;;;25.11;48.84
68380;BME280;57711;53.196;19.638;2023-05-25T10:58:34;100633.76;;;25.21;48.87
68380;BME280;57711;53.196;19.638;2023-05-25T11:01:06;100639.39;;;25.27;48.63
68380;BME280;57711;53.196;19.638;2023-05-25T11:06:16;100644.15;;;25.28;48.53
68380;BME280;57711;53.196;19.638;2023-05-25T11:08:54;100644.07;;;25.34;48.59
68380;BME280;57711;53.196;19.638;2023-05-25T11:17:08;100628.17;;;25.66;48.24
68380;BME280;57711;53.196;19.638;2023-05-25T11:19:42;100628.94;;;25.74;48.18
68380;BME280;57711;53.196;19.638;2023-05-25T11:22:29;100622.80;;;25.77;48.03
68380;BME280;57711;53.196;19.638;2023-05-25T11:24:59;100616.79;;;25.85;48.06
68380;BME280;57711;53.196;19.638;2023-05-25T11:27:29;100619.92;;;25.83;47.87
68380;BME280;57711;53.196;19.638;2023-05-25T11:29:58;100622.16;;;25.76;47.76
68380;BME280;57711;53.196;19.638;2023-05-25T11:32:27;100617.67;;;25.78;47.96
68380;BME280;57711;53.196;19.638;2023-05-25T11:34:55;100614.56;;;25.89;47.92
68380;BME280;57711;53.196;19.638;2023-05-25T11:37:25;100611.34;;;26.00;47.77
68380;BME280;57711;53.196;19.638;2023-05-25T11:39:54;100613.41;;;26.07;47.78
68380;BME280;57711;53.196;19.638;2023-05-25T11:42:23;100611.77;;;26.11;47.61
68380;BME280;57711;53.196;19.638;2023-05-25T11:44:50;100608.67;;;26.13;47.52
68380;BME280;57711;53.196;19.638;2023-05-25T11:47:20;100611.17;;;26.15;47.48
68380;BME280;57711;53.196;19.638;2023-05-25T11:49:49;100616.90;;;26.16;47.24
68380;BME280;57711;53.196;19.638;2023-05-25T11:52:18;100620.91;;;26.17;47.22
68380;BME280;57711;53.196;19.638;2023-05-25T11:54:46;100616.97;;;26.17;47.27
68380;BME280;57711;53.196;19.638;2023-05-25T11:57:22;100615.06;;;26.19;47.21
68380;BME280;57711;53.196;19.638;2023-05-25T11:59:53;100619.02;;;26.17;47.29
68380;BME280;57711;53.196;19.638;2023-05-25T12:02:22;100615.58;;;26.07;47.08
68380;BME280;57711;53.196;19.638;2023-05-25T12:04:57;100611.08;;;25.91;46.96
68380;BME280;57711;53.196;19.638;2023-05-25T12:07:26;100606.98;;;25.85;47.24
68380;BME280;57711;53.196;19.638;2023-05-25T12:10:05;100607.26;;;25.93;47.09
68380;BME280;57711;53.196;19.638;2023-05-25T12:12:47;100606.67;;;25.97;47.06
68380;BME280;57711;53.196;19.638;2023-05-25T12:15:24;100606.20;;;25.98;46.98
68380;BME280;57711;53.196;19.638;2023-05-25T12:17:53;100615.54;;;25.86;46.87
68380;BME280;57711;53.196;19.638;2023-05-25T12:20:20;100615.98;;;25.62;46.57
68380;BME280;57711;53.196;19.638;2023-05-25T12:22:48;100620.02;;;25.40;46.71
68380;BME280;57711;53.196;19.638;2023-05-25T12:25:19;100615.95;;;25.21;46.64
68380;BME280;57711;53.196;19.638;2023-05-25T12:28:13;100617.39;;;25.04;46.78
68380;BME280;57711;53.196;19.638;2023-05-25T12:30:40;100618.71;;;24.84;46.74
68380;BME280;57711;53.196;19.638;2023-05-25T12:33:11;100619.46;;;24.73;46.74
68380;BME280;57711;53.196;19.638;2023-05-25T12:35:47;100616.44;;;24.64;46.62
68380;BME280;57711;53.196;19.638;2023-05-25T12:38:19;100617.43;;;24.62;46.66
68380;BME280;57711;53.196;19.638;2023-05-25T12:41:03;100615.98;;;24.60;46.65
68380;BME280;57711;53.196;19.638;2023-05-25T12:43:40;100612.83;;;24.44;46.62
68380;BME280;57711;53.196;19.638;2023-05-25T12:46:09;100612.99;;;24.35;46.69
68380;BME280;57711;53.196;19.638;2023-05-25T12:48:36;100611.25;;;24.42;46.78
68380;BME280;57711;53.196;19.638;2023-05-25T12:51:03;100610.80;;;24.54;46.79
68380;BME280;57711;53.196;19.638;2023-05-25T12:53:53;100609.70;;;24.61;46.51
68380;BME280;57711;53.196;19.638;2023-05-25T12:56:20;100602.17;;;24.67;46.55
68380;BME280;57711;53.196;19.638;2023-05-25T12:58:48;100599.95;;;24.75;46.51
68380;BME280;57711;53.196;19.638;2023-05-25T13:01:15;100600.94;;;24.75;46.44
68380;BME280;57711;53.196;19.638;2023-05-25T13:03:43;100601.09;;;24.61;46.22
68380;BME280;57711;53.196;19.638;2023-05-25T13:06:10;100598.67;;;24.42;46.25
68380;BME280;57711;53.196;19.638;2023-05-25T13:08:37;100593.63;;;24.27;46.32
68380;BME280;57711;53.196;19.638;2023-05-25T13:11:04;100594.56;;;24.18;46.31
68380;BME280;57711;53.196;19.638;2023-05-25T13:13:32;100587.91;;;24.14;46.36